Time;durP1;ratioP1;P1;durP2;ratioP2;P2;SDS_P1;SDS_P2;PMS_P1;PMS_P2;Temp;Humidity;BMP_temperature;BMP_pressure;BME280_temperature;BME280_humidity;BME280_pressure;Samples;Min_cycle;Max_cycle;Signal;HPM_P1;HPM_P2
2021/05/01 00:00:37;;;;;;;126.57;61.58;;;;;;;;;;5011216;28;20527;-74
2021/05/01 00:03:04;;;;;;;121.03;57.63;;;;;;;;;;5015418;28;20037;-74
2021/05/01 00:05:30;;;;;;;96.15;52.38;;;;;;;;;;4990942;28;20107;-74
2021/05/01 00:07:56;;;;;;;134.80;60.10;;;;;;;;;;5013081;28;20053;-74
2021/05/01 00:10:22;;;;;;;118.60;57.60;;;;;;;;;;5012307;28;20099;-74
2021/05/01 00:12:49;;;;;;;93.00;51.33;;;;;;;;;;5004033;28;20112;-74
2021/05/01 00:15:15;;;;;;;128.02;61.85;;;;;;;;;;5002589;28;20042;-74
2021/05/01 00:17:41;;;;;;;142.05;64.55;;;;;;;;;;5000832;28;20132;-74
2021/05/01 00:20:08;;;;;;;115.35;58.33;;;;;;;;;;4997222;28;20373;-74
2021/05/01 00:22:34;;;;;;;128.73;61.80;;;;;;;;;;4997300;28;20040;-74
2021/05/01 00:25:00;;;;;;;111.28;57.08;;;;;;;;;;5011771;28;20405;-74
2021/05/01 00:27:26;;;;;;;108.78;57.22;;;;;;;;;;4981544;28;20077;-74
2021/05/01 00:29:54;;;;;;;104.18;56.60;;;;;;;;;;5009166;28;20328;-74
2021/05/01 00:32:20;;;;;;;110.93;55.88;;;;;;;;;;4995654;28;20044;-74
2021/05/01 00:34:46;;;;;;;103.53;55.05;;;;;;;;;;4977404;28;20067;-74
2021/05/01 00:37:12;;;;;;;90.43;51.75;;;;;;;;;;4993963;28;20057;-74
2021/05/01 00:39:38;;;;;;;116.05;57.25;;;;;;;;;;5009291;28;20046;-74
2021/05/01 00:42:05;;;;;;;139.93;62.67;;;;;;;;;;5011401;28;20034;-75
2021/05/01 00:44:31;;;;;;;108.88;56.72;;;;;;;;;;4998040;28;20507;-74
2021/05/01 00:46:58;;;;;;;109.32;56.85;;;;;;;;;;5011632;28;20034;-74
2021/05/01 00:49:24;;;;;;;139.20;60.97;;;;;;;;;;5010844;28;20034;-74
2021/05/01 00:51:50;;;;;;;106.72;56.15;;;;;;;;;;5011220;28;20057;-75
2021/05/01 00:54:16;;;;;;;138.55;61.92;;;;;;;;;;4994312;28;20042;-74
2021/05/01 00:56:43;;;;;;;152.55;66.57;;;;;;;;;;5009513;28;20060;-75
2021/05/01 00:59:09;;;;;;;110.20;58.88;;;;;;;;;;4996991;28;20088;-74
2021/05/01 01:01:37;;;;;;;135.95;63.95;;;;;;;;;;5002122;28;20480;-74
2021/05/01 01:04:04;;;;;;;121.45;58.72;;;;;;;;;;5010439;28;20508;-75
2021/05/01 01:06:30;;;;;;;119.53;59.30;;;;;;;;;;5009618;28;20522;-74
2021/05/01 01:08:56;;;;;;;109.35;58.22;;;;;;;;;;4999228;28;20476;-74
2021/05/01 01:11:23;;;;;;;89.50;53.05;;;;;;;;;;4997920;28;20655;-74
2021/05/01 01:13:51;;;;;;;84.97;50.85;;;;;;;;;;4993141;28;20115;-74
2021/05/01 01:16:17;;;;;;;80.65;48.78;;;;;;;;;;4998668;28;20041;-74
2021/05/01 01:18:43;;;;;;;92.03;53.53;;;;;;;;;;5009948;28;20120;-74
2021/05/01 01:21:10;;;;;;;97.35;54.83;;;;;;;;;;5000485;28;20454;-74
2021/05/01 01:23:36;;;;;;;86.45;51.80;;;;;;;;;;5010842;28;20124;-74
2021/05/01 01:26:02;;;;;;;81.55;50.35;;;;;;;;;;5008125;28;20061;-74
2021/05/01 01:28:29;;;;;;;92.22;54.58;;;;;;;;;;5001153;28;20413;-73
2021/05/01 01:30:55;;;;;;;77.53;49.13;;;;;;;;;;5008179;28;20167;-74
2021/05/01 01:33:21;;;;;;;111.57;58.28;;;;;;;;;;5001498;28;20388;-75
2021/05/01 01:35:47;;;;;;;155.52;64.63;;;;;;;;;;4999405;28;20548;-74
2021/05/01 01:38:13;;;;;;;122.40;59.65;;;;;;;;;;5001256;28;20181;-74
2021/05/01 01:40:42;;;;;;;117.90;58.83;;;;;;;;;;5009289;28;20503;-74
2021/05/01 01:43:09;;;;;;;119.20;59.45;;;;;;;;;;4995323;28;20132;-74
2021/05/01 01:45:35;;;;;;;101.57;55.88;;;;;;;;;;4998184;28;20049;-74
2021/05/01 01:48:01;;;;;;;89.78;53.60;;;;;;;;;;4998638;28;20034;-74
2021/05/01 01:50:28;;;;;;;139.52;63.10;;;;;;;;;;5001155;28;20426;-74
2021/05/01 01:52:54;;;;;;;119.03;60.88;;;;;;;;;;5000821;28;20038;-74
2021/05/01 01:55:21;;;;;;;108.25;59.10;;;;;;;;;;5002923;28;20203;-74
2021/05/01 01:57:48;;;;;;;135.38;64.47;;;;;;;;;;5007919;28;20030;-74
2021/05/01 02:00:16;;;;;;;126.07;62.10;;;;;;;;;;5009061;28;20088;-74
2021/05/01 02:02:42;;;;;;;120.22;60.40;;;;;;;;;;5010128;28;20037;-73
2021/05/01 02:05:10;;;;;;;116.90;59.85;;;;;;;;;;4994641;28;20069;-74
2021/05/01 02:07:36;;;;;;;130.82;62.15;;;;;;;;;;5010124;28;20033;-74
2021/05/01 02:10:03;;;;;;;105.72;55.78;;;;;;;;;;4978097;28;20074;-74
2021/05/01 02:12:29;;;;;;;106.90;57.05;;;;;;;;;;4998277;28;20038;-74
2021/05/01 02:14:56;;;;;;;145.48;66.00;;;;;;;;;;4986331;28;20128;-73
2021/05/01 02:17:22;;;;;;;115.28;60.10;;;;;;;;;;5007693;28;20046;-74
2021/05/01 02:19:49;;;;;;;120.15;62.30;;;;;;;;;;5009474;28;20088;-74
2021/05/01 02:22:15;;;;;;;131.93;63.10;;;;;;;;;;5011359;28;20026;-74
2021/05/01 02:24:41;;;;;;;115.03;60.10;;;;;;;;;;5013600;28;20034;-74
2021/05/01 02:27:07;;;;;;;102.85;58.25;;;;;;;;;;5012744;28;20030;-73
2021/05/01 02:29:33;;;;;;;97.72;53.80;;;;;;;;;;5003589;28;20117;-74
2021/05/01 02:31:59;;;;;;;110.22;58.70;;;;;;;;;;5012598;28;20030;-74
2021/05/01 02:34:26;;;;;;;113.32;60.53;;;;;;;;;;5013321;28;20524;-74
2021/05/01 02:36:52;;;;;;;103.60;55.95;;;;;;;;;;4988994;28;20074;-73
2021/05/01 02:39:18;;;;;;;104.07;56.70;;;;;;;;;;4973589;28;20463;-74
2021/05/01 02:41:44;;;;;;;126.78;63.47;;;;;;;;;;4956489;28;20035;-74
2021/05/01 02:44:11;;;;;;;112.57;59.22;;;;;;;;;;4974095;28;20059;-74
2021/05/01 02:46:37;;;;;;;128.82;61.75;;;;;;;;;;4973798;28;20035;-74
2021/05/01 02:49:04;;;;;;;100.53;56.08;;;;;;;;;;4956247;28;20121;-74
2021/05/01 02:51:30;;;;;;;87.00;53.47;;;;;;;;;;4973042;28;20031;-74
2021/05/01 02:53:56;;;;;;;89.47;53.10;;;;;;;;;;4956363;28;20042;-74
2021/05/01 02:56:22;;;;;;;98.25;55.42;;;;;;;;;;4974104;28;20042;-75
2021/05/01 02:58:48;;;;;;;113.72;56.83;;;;;;;;;;4973606;28;20118;-74
2021/05/01 03:01:14;;;;;;;92.95;53.10;;;;;;;;;;4973500;28;20039;-74
2021/05/01 03:03:45;;;;;;;74.90;48.83;;;;;;;;;;4957036;28;20092;-73
2021/05/01 03:06:12;;;;;;;109.05;56.25;;;;;;;;;;4973896;28;20398;-74
2021/05/01 03:08:39;;;;;;;98.68;55.53;;;;;;;;;;4984495;28;20441;-73
2021/05/01 03:11:05;;;;;;;91.95;53.13;;;;;;;;;;4977360;28;20119;-73
2021/05/01 03:13:31;;;;;;;113.72;56.67;;;;;;;;;;4972369;28;20069;-74
2021/05/01 03:15:57;;;;;;;102.15;55.05;;;;;;;;;;4972133;28;20026;-74
2021/05/01 03:18:23;;;;;;;89.47;52.78;;;;;;;;;;4956256;28;20038;-74
2021/05/01 03:20:52;;;;;;;104.50;53.22;;;;;;;;;;4956234;28;20030;-74
2021/05/01 03:23:20;;;;;;;122.63;56.42;;;;;;;;;;4973060;28;20367;-75
2021/05/01 03:25:47;;;;;;;109.47;54.00;;;;;;;;;;4956583;28;20054;-74
2021/05/01 03:28:13;;;;;;;138.40;59.72;;;;;;;;;;4972056;28;20042;-74
2021/05/01 03:30:40;;;;;;;109.53;55.00;;;;;;;;;;4973259;28;20208;-73
2021/05/01 03:33:06;;;;;;;151.85;61.38;;;;;;;;;;4970018;28;20030;-74
2021/05/01 03:35:32;;;;;;;140.68;60.35;;;;;;;;;;4973608;28;20538;-73
2021/05/01 03:37:58;;;;;;;158.15;64.15;;;;;;;;;;4999187;28;20046;-74
2021/05/01 03:40:24;;;;;;;185.98;67.57;;;;;;;;;;5012320;28;20034;-74
2021/05/01 03:42:51;;;;;;;158.00;66.72;;;;;;;;;;5010499;28;20036;-73
2021/05/01 03:45:18;;;;;;;157.13;65.25;;;;;;;;;;5001316;28;20468;-74
2021/05/01 03:47:45;;;;;;;190.45;71.78;;;;;;;;;;4996792;28;20026;-74
2021/05/01 03:50:11;;;;;;;180.32;71.10;;;;;;;;;;5010994;28;20037;-74
2021/05/01 03:52:38;;;;;;;244.63;81.40;;;;;;;;;;5000344;28;20038;-74
2021/05/01 03:55:05;;;;;;;240.00;79.78;;;;;;;;;;4994857;28;20045;-75
2021/05/01 03:57:31;;;;;;;357.35;92.70;;;;;;;;;;5012192;28;20044;-75
2021/05/01 03:59:57;;;;;;;478.45;99.78;;;;;;;;;;5008142;28;20044;-74
2021/05/01 04:02:23;;;;;;;348.38;84.97;;;;;;;;;;4993584;28;20041;-74
2021/05/01 04:04:49;;;;;;;500.30;101.97;;;;;;;;;;5011932;28;20038;-74
2021/05/01 04:07:15;;;;;;;340.52;84.97;;;;;;;;;;4987321;28;20037;-74
2021/05/01 04:09:42;;;;;;;592.78;110.57;;;;;;;;;;4998178;28;20033;-73
2021/05/01 04:12:08;;;;;;;458.70;92.90;;;;;;;;;;4998050;28;20037;-73
2021/05/01 04:14:34;;;;;;;300.45;84.70;;;;;;;;;;5011241;28;20583;-73
2021/05/01 04:17:00;;;;;;;314.67;78.95;;;;;;;;;;4995403;28;20042;-73
2021/05/01 04:19:27;;;;;;;175.82;65.10;;;;;;;;;;4998669;28;20041;-74
2021/05/01 04:21:53;;;;;;;168.82;66.25;;;;;;;;;;5009874;28;20068;-73
2021/05/01 04:24:19;;;;;;;132.40;58.08;;;;;;;;;;5011237;28;20124;-73
2021/05/01 04:26:45;;;;;;;122.80;56.83;;;;;;;;;;4997768;28;20064;-73
2021/05/01 04:29:11;;;;;;;204.55;67.35;;;;;;;;;;5009358;28;20037;-73
2021/05/01 04:31:37;;;;;;;176.38;62.30;;;;;;;;;;4997378;28;20037;-73
2021/05/01 04:34:04;;;;;;;230.57;68.65;;;;;;;;;;5009566;28;20400;-74
2021/05/01 04:36:30;;;;;;;178.48;62.60;;;;;;;;;;5011205;28;20034;-74
2021/05/01 04:38:56;;;;;;;322.40;75.88;;;;;;;;;;4996435;28;20042;-74
2021/05/01 04:41:22;;;;;;;413.30;80.35;;;;;;;;;;4996497;28;20120;-73
2021/05/01 04:43:48;;;;;;;398.92;78.10;;;;;;;;;;5010917;28;20034;-74
2021/05/01 04:46:17;;;;;;;637.35;94.30;;;;;;;;;;5010236;28;20037;-74
2021/05/01 04:48:44;;;;;;;532.13;93.43;;;;;;;;;;5009307;28;20489;-74
2021/05/01 04:51:11;;;;;;;382.35;80.45;;;;;;;;;;5010416;28;20064;-74
2021/05/01 04:53:37;;;;;;;311.63;78.65;;;;;;;;;;4996843;28;20065;-75
2021/05/01 04:56:03;;;;;;;295.60;70.22;;;;;;;;;;5009693;28;20060;-74
2021/05/01 04:58:29;;;;;;;224.25;67.82;;;;;;;;;;5010649;28;20465;-74
2021/05/01 05:00:55;;;;;;;377.05;83.45;;;;;;;;;;5002330;28;20364;-74
2021/05/01 05:03:21;;;;;;;326.52;82.85;;;;;;;;;;4979257;28;20041;-74
2021/05/01 05:05:48;;;;;;;276.58;77.07;;;;;;;;;;4979469;28;20045;-75
2021/05/01 05:08:14;;;;;;;268.63;79.57;;;;;;;;;;5009128;28;20053;-75
2021/05/01 05:10:40;;;;;;;216.75;73.30;;;;;;;;;;5009744;28;20038;-74
2021/05/01 05:13:06;;;;;;;233.32;74.93;;;;;;;;;;5009026;28;20041;-74
2021/05/01 05:15:32;;;;;;;214.30;76.22;;;;;;;;;;5010424;28;20465;-74
2021/05/01 05:17:58;;;;;;;146.95;65.75;;;;;;;;;;4983560;28;20495;-74
2021/05/01 05:20:25;;;;;;;116.20;57.53;;;;;;;;;;4991375;28;20061;-74
2021/05/01 05:22:51;;;;;;;95.95;53.60;;;;;;;;;;5008404;28;20136;-74
2021/05/01 05:25:17;;;;;;;87.78;49.95;;;;;;;;;;5010525;28;20049;-78
2021/05/01 05:27:43;;;;;;;84.22;48.90;;;;;;;;;;4993153;28;20091;-76
2021/05/01 05:30:10;;;;;;;69.97;43.53;;;;;;;;;;5013289;28;20046;-78
2021/05/01 05:32:36;;;;;;;58.58;39.63;;;;;;;;;;5011280;28;20044;-78
2021/05/01 05:35:03;;;;;;;64.18;41.20;;;;;;;;;;5010599;28;20048;-74
2021/05/01 05:37:29;;;;;;;49.03;35.35;;;;;;;;;;5011060;28;20503;-74
2021/05/01 05:39:57;;;;;;;39.85;30.30;;;;;;;;;;5010175;28;20033;-74
2021/05/01 05:42:24;;;;;;;43.10;31.38;;;;;;;;;;5007488;28;20330;-75
2021/05/01 05:44:51;;;;;;;32.45;24.05;;;;;;;;;;4989743;28;20164;-71
2021/05/01 05:47:19;;;;;;;28.77;23.58;;;;;;;;;;4991518;28;20480;-71
2021/05/01 05:49:45;;;;;;;21.20;18.77;;;;;;;;;;5006978;28;20160;-73
2021/05/01 05:52:11;;;;;;;20.70;17.75;;;;;;;;;;5009067;28;20042;-74
2021/05/01 05:54:38;;;;;;;25.48;18.92;;;;;;;;;;5008843;28;20675;-73
2021/05/01 05:57:07;;;;;;;21.52;17.17;;;;;;;;;;4986802;28;20433;-74
2021/05/01 05:59:33;;;;;;;;;;;;;;;;;;5008977;28;20073;-73
2021/05/01 06:02:01;;;;;;;;;;;;;;;;;;5015158;28;19925;-73
2021/05/01 06:04:28;;;;;;;;;;;;;;;;;;5013907;28;19917;-73
2021/05/01 06:06:54;;;;;;;;;;;;;;;;;;5014701;28;19921;-74
2021/05/01 06:09:20;;;;;;;;;;;;;;;;;;4996949;28;19917;-74
2021/05/01 06:11:46;;;;;;;;;;;;;;;;;;5014954;28;20378;-74
2021/05/01 06:14:12;;;;;;;;;;;;;;;;;;5014737;28;20369;-74
2021/05/01 06:16:38;;;;;;;;;;;;;;;;;;5014877;28;19960;-75
2021/05/01 06:19:04;;;;;;;;;;;;;;;;;;5024283;28;20028;-74
2021/05/01 06:21:30;;;;;;;;;;;;;;;;;;4997388;28;20012;-74
2021/05/01 06:23:56;;;;;;;;;;;;;;;;;;5015824;28;19917;-74
2021/05/01 06:26:22;;;;;;;11.57;10.18;;;;;;;;;;5013956;28;19943;-74
2021/05/01 06:28:48;;;;;;;13.10;11.15;;;;;;;;;;4996005;28;21474;-73
2021/05/01 06:31:15;;;;;;;11.05;9.95;;;;;;;;;;5012570;28;20439;-74
2021/05/01 06:33:41;;;;;;;11.50;10.30;;;;;;;;;;5011237;28;20429;-72
2021/05/01 06:36:11;;;;;;;10.40;9.30;;;;;;;;;;4995167;28;20432;-74
2021/05/01 06:38:38;;;;;;;9.88;8.98;;;;;;;;;;5011862;28;20432;-74
2021/05/01 06:41:07;;;;;;;10.48;9.48;;;;;;;;;;5011003;28;20512;-73
2021/05/01 06:44:02;;;;;;;11.25;10.15;;;;;;;;;;5009354;28;20433;-72
2021/05/01 06:46:29;;;;;;;12.13;10.93;;;;;;;;;;4992975;28;20412;-71
2021/05/01 06:48:58;;;;;;;13.68;12.35;;;;;;;;;;5010957;28;20439;-72
2021/05/01 06:51:26;;;;;;;14.30;12.90;;;;;;;;;;5011749;28;20452;-72
2021/05/01 06:53:52;;;;;;;14.15;12.75;;;;;;;;;;5011707;28;20474;-71
2021/05/01 06:56:18;;;;;;;12.93;11.63;;;;;;;;;;5010135;28;20425;-72
2021/05/01 06:58:46;;;;;;;13.93;12.48;;;;;;;;;;5011554;28;20857;-73
2021/05/01 07:01:13;;;;;;;13.70;12.30;;;;;;;;;;5009207;28;20436;-73
2021/05/01 07:03:47;;;;;;;15.13;13.57;;;;;;;;;;4992906;28;20428;-73
2021/05/01 07:06:17;;;;;;;16.25;13.80;;;;;;;;;;4993675;28;20497;-74
2021/05/01 07:08:44;;;;;;;13.38;11.25;;;;;;;;;;5011498;28;20458;-73
2021/05/01 07:11:12;;;;;;;14.10;12.32;;;;;;;;;;5010510;28;20424;-73
2021/05/01 07:13:39;;;;;;;13.63;12.23;;;;;;;;;;4997684;28;20423;-74
2021/05/01 07:16:09;;;;;;;13.43;11.23;;;;;;;;;;4992052;28;20556;-72
2021/05/01 07:18:37;;;;;;;15.57;12.98;;;;;;;;;;4993778;28;20046;-72
2021/05/01 07:21:04;;;;;;;17.65;12.93;;;;;;;;;;5011786;28;20401;-72
2021/05/01 07:23:30;;;;;;;14.65;13.10;;;;;;;;;;5011614;28;20038;-72
2021/05/01 07:25:56;;;;;;;16.73;14.90;;;;;;;;;;5009517;28;20128;-71
2021/05/01 07:28:24;;;;;;;16.58;13.57;;;;;;;;;;4993945;28;20077;-72
2021/05/01 07:30:53;;;;;;;20.33;15.95;;;;;;;;;;5012710;28;20065;-71
2021/05/01 07:33:26;;;;;;;20.35;17.60;;;;;;;;;;5010868;28;20481;-72
2021/05/01 07:35:56;;;;;;;20.10;16.90;;;;;;;;;;5009643;28;20041;-72
2021/05/01 07:38:24;;;;;;;22.90;19.20;;;;;;;;;;5010801;28;20551;-72
2021/05/01 07:40:52;;;;;;;24.13;19.70;;;;;;;;;;4995212;28;20121;-71
2021/05/01 07:43:20;;;;;;;24.42;20.55;;;;;;;;;;5014444;28;20049;-74
2021/05/01 07:45:47;;;;;;;23.20;19.55;;;;;;;;;;4994435;28;20045;-73
2021/05/01 07:48:14;;;;;;;21.80;17.70;;;;;;;;;;5012003;28;20470;-72
2021/05/01 07:50:42;;;;;;;21.98;17.98;;;;;;;;;;4994604;28;20034;-74
2021/05/01 07:53:08;;;;;;;27.15;20.25;;;;;;;;;;4995511;28;20160;-73
2021/05/01 07:55:34;;;;;;;26.15;21.02;;;;;;;;;;4993860;28;20465;-73
2021/05/01 07:58:00;;;;;;;25.33;19.73;;;;;;;;;;5011969;28;20041;-73
2021/05/01 08:00:27;;;;;;;22.73;18.23;;;;;;;;;;4994266;28;20378;-73
2021/05/01 08:02:53;;;;;;;23.13;18.35;;;;;;;;;;5010474;28;20088;-69
2021/05/01 08:05:20;;;;;;;22.70;17.98;;;;;;;;;;5012274;28;20500;-69
2021/05/01 08:07:48;;;;;;;20.75;17.95;;;;;;;;;;5012430;28;20034;-71
2021/05/01 08:10:14;;;;;;;19.23;17.20;;;;;;;;;;5012773;28;20501;-69
2021/05/01 08:12:40;;;;;;;22.95;19.05;;;;;;;;;;5012214;28;20100;-71
2021/05/01 08:15:08;;;;;;;21.05;16.90;;;;;;;;;;5012622;28;20050;-72
2021/05/01 08:17:34;;;;;;;21.30;17.13;;;;;;;;;;4980843;28;20046;-72
2021/05/01 08:20:01;;;;;;;20.38;17.70;;;;;;;;;;5011343;28;20117;-73
2021/05/01 08:22:27;;;;;;;23.83;18.33;;;;;;;;;;5007970;28;20437;-73
2021/05/01 08:24:53;;;;;;;21.55;18.30;;;;;;;;;;4995846;28;20042;-73
2021/05/01 08:27:20;;;;;;;19.50;17.38;;;;;;;;;;4975635;28;20042;-73
2021/05/01 08:29:46;;;;;;;20.63;18.42;;;;;;;;;;5011298;28;20042;-72
2021/05/01 08:32:14;;;;;;;19.55;16.67;;;;;;;;;;5011431;28;20408;-72
2021/05/01 08:34:40;;;;;;;21.60;18.27;;;;;;;;;;4977715;28;20041;-72
2021/05/01 08:37:06;;;;;;;21.05;17.42;;;;;;;;;;4993445;28;20503;-72
2021/05/01 08:39:33;;;;;;;19.10;17.10;;;;;;;;;;4994575;28;20045;-72
2021/05/01 08:42:02;;;;;;;18.42;16.52;;;;;;;;;;5012220;28;20038;-72
2021/05/01 08:44:28;;;;;;;19.45;15.50;;;;;;;;;;5011814;28;20508;-72
2021/05/01 08:46:54;;;;;;;20.60;15.10;;;;;;;;;;5011608;28;20145;-72
2021/05/01 08:49:20;;;;;;;17.63;15.57;;;;;;;;;;4994442;28;20042;-72
2021/05/01 08:51:47;;;;;;;19.40;15.98;;;;;;;;;;5011121;28;20049;-72
2021/05/01 08:54:14;;;;;;;15.85;13.65;;;;;;;;;;5012569;28;20038;-72
2021/05/01 08:56:40;;;;;;;25.17;15.93;;;;;;;;;;5011290;28;20049;-73
2021/05/01 08:59:06;;;;;;;18.88;15.63;;;;;;;;;;5012930;28;20378;-73
2021/05/01 09:01:36;;;;;;;18.30;15.93;;;;;;;;;;4993165;28;20072;-73
2021/05/01 09:04:03;;;;;;;17.58;14.60;;;;;;;;;;4977947;28;20401;-72
2021/05/01 09:06:29;;;;;;;17.48;15.25;;;;;;;;;;5011263;28;20100;-71
2021/05/01 09:08:57;;;;;;;17.27;15.45;;;;;;;;;;5011237;28;20046;-71
2021/05/01 09:11:36;;;;;;;19.88;14.75;;;;;;;;;;5011619;28;20396;-69
2021/05/01 09:14:14;;;;;;;16.08;13.57;;;;;;;;;;4994243;28;20046;-72
2021/05/01 09:16:41;;;;;;;23.85;14.05;;;;;;;;;;4998591;28;20076;-75
2021/05/01 09:19:07;;;;;;;18.23;14.65;;;;;;;;;;5011405;28;20049;-71
2021/05/01 09:21:33;;;;;;;14.68;12.77;;;;;;;;;;5007813;28;20045;-69
2021/05/01 09:23:59;;;;;;;17.60;13.23;;;;;;;;;;5011421;28;20049;-68
2021/05/01 09:26:34;;;;;;;16.65;13.93;;;;;;;;;;5021344;28;20049;-69
2021/05/01 09:29:01;;;;;;;16.98;13.63;;;;;;;;;;5016670;28;20484;-70
2021/05/01 09:31:27;;;;;;;16.48;14.73;;;;;;;;;;5028577;28;20048;-68
2021/05/01 09:33:55;;;;;;;16.55;14.18;;;;;;;;;;5011866;28;21300;-71
2021/05/01 09:36:21;;;;;;;17.58;15.32;;;;;;;;;;5014727;28;20045;-70
2021/05/01 09:38:51;;;;;;;15.90;13.05;;;;;;;;;;5019636;28;20064;-71
2021/05/01 09:41:25;;;;;;;15.15;13.65;;;;;;;;;;5027965;28;20491;-69
2021/05/01 09:44:03;;;;;;;15.02;13.23;;;;;;;;;;5001774;28;20049;-70
2021/05/01 09:46:43;;;;;;;14.77;12.80;;;;;;;;;;5007414;28;20038;-71
2021/05/01 09:49:15;;;;;;;14.48;13.02;;;;;;;;;;5002612;28;20470;-72
2021/05/01 09:52:00;;;;;;;17.48;13.35;;;;;;;;;;4997480;28;20046;-73
2021/05/01 09:54:30;;;;;;;15.30;12.90;;;;;;;;;;4998698;28;20037;-72
2021/05/01 09:56:58;;;;;;;18.08;12.52;;;;;;;;;;4997948;28;20074;-72
2021/05/01 09:59:34;;;;;;;15.63;12.38;;;;;;;;;;4993886;28;20107;-71
2021/05/01 10:02:01;;;;;;;13.18;11.82;;;;;;;;;;5010962;28;20097;-70
2021/05/01 10:04:28;;;;;;;13.30;11.25;;;;;;;;;;5010748;28;20049;-71
2021/05/01 10:06:56;;;;;;;19.15;13.23;;;;;;;;;;4976868;28;20492;-72
2021/05/01 10:09:35;;;;;;;13.50;11.68;;;;;;;;;;5010364;28;20120;-72
2021/05/01 10:12:11;;;;;;;14.35;12.10;;;;;;;;;;4982064;28;20133;-73
2021/05/01 10:14:41;;;;;;;12.20;10.80;;;;;;;;;;5007169;28;20056;-75
2021/05/01 10:17:07;;;;;;;15.00;11.90;;;;;;;;;;5014570;28;20052;-71
2021/05/01 10:19:46;;;;;;;15.13;11.35;;;;;;;;;;5008851;28;20113;-70
2021/05/01 10:22:28;;;;;;;14.55;12.00;;;;;;;;;;5009756;28;20050;-69
2021/05/01 10:24:55;;;;;;;16.95;12.45;;;;;;;;;;5008200;28;20147;-68
2021/05/01 10:27:21;;;;;;;14.15;11.90;;;;;;;;;;5009660;28;20053;-68
2021/05/01 10:30:07;;;;;;;12.85;11.05;;;;;;;;;;5009388;28;20041;-70
2021/05/01 10:32:40;;;;;;;13.75;11.82;;;;;;;;;;4993896;28;20054;-67
2021/05/01 10:35:07;;;;;;;13.45;11.77;;;;;;;;;;5011924;28;20048;-68
2021/05/01 10:37:37;;;;;;;13.88;10.77;;;;;;;;;;5011713;28;20131;-68
2021/05/01 10:40:03;;;;;;;19.08;12.75;;;;;;;;;;5010694;28;20046;-69
2021/05/01 10:42:30;;;;;;;17.60;13.55;;;;;;;;;;5012351;28;20472;-68
2021/05/01 10:45:00;;;;;;;15.80;13.45;;;;;;;;;;5014235;28;20077;-68
2021/05/01 10:47:26;;;;;;;14.15;11.75;;;;;;;;;;5014075;28;20075;-67
2021/05/01 10:49:55;;;;;;;14.90;12.10;;;;;;;;;;5017796;28;20038;-68
2021/05/01 10:52:22;;;;;;;13.98;11.30;;;;;;;;;;4980795;28;20068;-67
2021/05/01 10:55:00;;;;;;;13.50;11.40;;;;;;;;;;4996342;28;20049;-68
2021/05/01 10:57:26;;;;;;;7.30;6.57;;;;;;;;;;5014273;28;20042;-68
2021/05/01 11:00:01;;;;;;;7.45;6.65;;;;;;;;;;5012419;28;20038;-68
2021/05/01 11:02:33;;;;;;;10.98;8.20;;;;;;;;;;4996312;28;20108;-71
2021/05/01 11:05:00;;;;;;;7.70;6.47;;;;;;;;;;5001029;28;20071;-69
2021/05/01 11:07:38;;;;;;;10.43;7.30;;;;;;;;;;5011141;28;20500;-72
2021/05/01 11:10:05;;;;;;;11.65;7.05;;;;;;;;;;5010223;28;20052;-68
2021/05/01 11:12:35;;;;;;;9.88;8.10;;;;;;;;;;5012778;28;20049;-68
2021/05/01 11:15:01;;;;;;;7.80;7.10;;;;;;;;;;5011919;28;20116;-67
2021/05/01 11:17:28;;;;;;;8.90;8.10;;;;;;;;;;5011365;28;20049;-68
2021/05/01 11:19:59;;;;;;;9.52;8.10;;;;;;;;;;5010234;28;20397;-68
2021/05/01 11:22:27;;;;;;;10.65;9.55;;;;;;;;;;5010047;28;20030;-68
2021/05/01 11:24:54;;;;;;;9.50;8.45;;;;;;;;;;5011953;28;20049;-69
2021/05/01 11:27:21;;;;;;;11.45;9.82;;;;;;;;;;5020319;28;20401;-68
2021/05/01 11:29:47;;;;;;;11.23;9.88;;;;;;;;;;5020662;28;20112;-68
2021/05/01 11:32:13;;;;;;;14.13;10.45;;;;;;;;;;5024157;28;20048;-68
2021/05/01 11:34:40;;;;;;;12.25;10.95;;;;;;;;;;5015769;28;20042;-68
2021/05/01 11:37:07;;;;;;;13.40;11.75;;;;;;;;;;5021962;28;20121;-68
2021/05/01 11:39:38;;;;;;;13.48;11.68;;;;;;;;;;5011450;28;20049;-68
2021/05/01 11:42:04;;;;;;;12.10;9.82;;;;;;;;;;5012051;28;20037;-68
2021/05/01 11:44:30;;;;;;;11.48;10.30;;;;;;;;;;4996157;28;20045;-68
2021/05/01 11:47:03;;;;;;;9.93;8.95;;;;;;;;;;5012807;28;20485;-68
2021/05/01 11:49:29;;;;;;;11.07;9.98;;;;;;;;;;5022480;28;20117;-68
2021/05/01 11:52:13;;;;;;;13.88;10.27;;;;;;;;;;5013445;28;20091;-68
2021/05/01 11:54:39;;;;;;;13.43;10.90;;;;;;;;;;5024623;28;20103;-68
2021/05/01 11:57:15;;;;;;;10.65;9.55;;;;;;;;;;5011838;28;20042;-69
2021/05/01 11:59:45;;;;;;;12.30;10.48;;;;;;;;;;5012856;28;20058;-69
2021/05/01 12:02:13;;;;;;;12.60;10.50;;;;;;;;;;4995499;28;20041;-70
2021/05/01 12:04:39;;;;;;;11.60;9.98;;;;;;;;;;5013017;28;20042;-69
2021/05/01 12:07:06;;;;;;;13.30;9.68;;;;;;;;;;5012776;28;20131;-69
2021/05/01 12:09:32;;;;;;;11.27;9.73;;;;;;;;;;5012625;28;20456;-68
2021/05/01 12:11:59;;;;;;;12.98;10.27;;;;;;;;;;5011732;28;20045;-68
2021/05/01 12:14:29;;;;;;;11.35;9.65;;;;;;;;;;5012199;28;20549;-68
2021/05/01 12:17:08;;;;;;;11.15;9.10;;;;;;;;;;5012155;28;20133;-68
2021/05/01 12:19:34;;;;;;;10.18;9.02;;;;;;;;;;5012790;28;20044;-68
2021/05/01 12:22:20;;;;;;;9.40;8.50;;;;;;;;;;5012332;28;20040;-68
2021/05/01 12:24:46;;;;;;;9.85;8.68;;;;;;;;;;5012221;28;20045;-68
2021/05/01 12:27:32;;;;;;;9.80;8.82;;;;;;;;;;5011372;28;20575;-68
2021/05/01 12:29:59;;;;;;;9.82;8.55;;;;;;;;;;5011698;28;20479;-69
2021/05/01 12:32:26;;;;;;;9.82;8.32;;;;;;;;;;4994311;28;20049;-69
2021/05/01 12:34:56;;;;;;;10.52;8.40;;;;;;;;;;5011854;28;20506;-70
2021/05/01 12:37:23;;;;;;;8.68;7.80;;;;;;;;;;5011756;28;20072;-69
2021/05/01 12:39:49;;;;;;;11.88;8.95;;;;;;;;;;5002035;28;20117;-70
2021/05/01 12:42:25;;;;;;;9.68;8.60;;;;;;;;;;5010712;28;20046;-71
2021/05/01 12:44:52;;;;;;;9.00;7.88;;;;;;;;;;5011857;28;20053;-72
2021/05/01 12:47:39;;;;;;;9.40;8.40;;;;;;;;;;4994952;28;20038;-68
2021/05/01 12:50:26;;;;;;;9.05;7.90;;;;;;;;;;5009914;28;20504;-70
2021/05/01 12:52:53;;;;;;;10.55;7.80;;;;;;;;;;5011319;28;20057;-71
2021/05/01 12:55:19;;;;;;;10.25;8.85;;;;;;;;;;5010149;28;20077;-67
2021/05/01 12:57:47;;;;;;;11.95;8.93;;;;;;;;;;5011726;28;20477;-68
2021/05/01 13:00:29;;;;;;;10.10;8.90;;;;;;;;;;5010736;28;20038;-68
2021/05/01 13:03:05;;;;;;;8.77;7.88;;;;;;;;;;4998730;28;20037;-70
2021/05/01 13:05:33;;;;;;;8.18;7.25;;;;;;;;;;5011212;28;20053;-69
2021/05/01 13:07:59;;;;;;;13.52;7.97;;;;;;;;;;4994593;28;20042;-68
2021/05/01 13:10:26;;;;;;;11.52;8.15;;;;;;;;;;5003852;28;20559;-67
2021/05/01 13:13:09;;;;;;;10.23;8.93;;;;;;;;;;5006418;28;20397;-70
2021/05/01 13:15:54;;;;;;;7.85;5.93;;;;;;;;;;5011241;28;20437;-68
2021/05/01 13:18:21;;;;;;;4.10;3.75;;;;;;;;;;5010942;28;20176;-72
2021/05/01 13:21:02;;;;;;;5.80;3.40;;;;;;;;;;5003815;28;20095;-69
2021/05/01 13:23:39;;;;;;;7.85;2.90;;;;;;;;;;4994874;28;20042;-67
2021/05/01 13:26:13;;;;;;;4.15;3.75;;;;;;;;;;5011013;28;20042;-68
2021/05/01 13:28:45;;;;;;;4.57;3.83;;;;;;;;;;5011710;28;20099;-68
2021/05/01 13:31:12;;;;;;;5.05;4.00;;;;;;;;;;4993266;28;20038;-68
2021/05/01 13:33:43;;;;;;;4.05;3.72;;;;;;;;;;4994778;28;20496;-68
2021/05/01 13:36:09;;;;;;;5.45;4.68;;;;;;;;;;5011313;28;20045;-68
2021/05/01 13:38:35;;;;;;;4.85;4.35;;;;;;;;;;4995034;28;20057;-68
2021/05/01 13:41:10;;;;;;;4.70;3.97;;;;;;;;;;5010600;28;20042;-68
2021/05/01 13:43:44;;;;;;;5.15;4.60;;;;;;;;;;5012140;28;20437;-68
2021/05/01 13:46:11;;;;;;;5.10;4.60;;;;;;;;;;5011290;28;20042;-68
2021/05/01 13:48:42;;;;;;;5.22;4.55;;;;;;;;;;5012045;28;20117;-68
2021/05/01 13:51:10;;;;;;;6.28;4.68;;;;;;;;;;5011228;28;20532;-68
2021/05/01 13:53:36;;;;;;;5.50;5.00;;;;;;;;;;5011775;28;20037;-68
2021/05/01 13:56:03;;;;;;;5.10;4.60;;;;;;;;;;4992997;28;20095;-68
2021/05/01 13:58:30;;;;;;;6.28;5.10;;;;;;;;;;5011222;28;20053;-68
2021/05/01 14:00:59;;;;;;;5.70;4.82;;;;;;;;;;5006588;28;20046;-67
2021/05/01 14:03:27;;;;;;;5.40;4.90;;;;;;;;;;5010985;28;20477;-67
2021/05/01 14:05:54;;;;;;;5.22;4.43;;;;;;;;;;5010998;28;20042;-67
2021/05/01 14:08:21;;;;;;;5.43;3.78;;;;;;;;;;5010182;28;20063;-68
2021/05/01 14:10:48;;;;;;;6.07;4.85;;;;;;;;;;5010292;28;20042;-67
2021/05/01 14:13:19;;;;;;;5.22;4.72;;;;;;;;;;5010194;28;20060;-68
2021/05/01 14:15:45;;;;;;;4.97;4.50;;;;;;;;;;5011469;28;20062;-68
2021/05/01 14:18:12;;;;;;;5.05;4.55;;;;;;;;;;5012548;28;20053;-69
2021/05/01 14:20:40;;;;;;;5.70;4.70;;;;;;;;;;5009567;28;20046;-72
2021/05/01 14:23:13;;;;;;;5.40;4.90;;;;;;;;;;5012058;28;20113;-70
2021/05/01 14:25:40;;;;;;;5.60;4.97;;;;;;;;;;5006743;28;20050;-70